TISX/STX METAR and TAF weather

Enter ICAO airport designator
Station Type Date Time Source
TISX METAR 2019/06/26 15:53 UTC NOAA

TISX 261553Z 11013KT 10SM SCT023 31/22 A3007 RMK AO2 SLP182 T03110222


Station Type Date Time Source
TISX Decoded METAR 2019/06/26 15:53 UTC NOAA

Christiansted, Henry E. Rohlsen Airport, Virgin Islands (TISX) 17-42N 064-48W 17M
Jun 26, 2019 - 11:53 AM EDT / 2019.06.26 1553 UTC
Wind: from the ESE (110 degrees) at 15 MPH (13 KT):0
Visibility: 10 mile(s):0
Sky conditions: partly cloudy
Temperature: 88.0 F (31.1 C)
Heat index: 94.6 F (34.8 C):1
Dew Point: 72.0 F (22.2 C)
Relative Humidity: 59%
Pressure (altimeter): 30.07 in. Hg (1018 hPa)
ob: TISX 261553Z 11013KT 10SM SCT023 31/22 A3007 RMK AO2 SLP182 T03110222
cycle: 16

Station Type Date Time Source
TISX TAF 2019/06/26 12:27 UTC NOAA

TAF TISX 261120Z 2612/2712 07008KT P6SM FEW020
FM261400 11013KT P6SM SCT025
FM262300 07007KT P6SM FEW022 SCT040

Example: see airport list